Time;durP1;ratioP1;P1;durP2;ratioP2;P2;SDS_P1;SDS_P2;PMS_P1;PMS_P2;Temp;Humidity;BMP_temperature;BMP_pressure;BME280_temperature;BME280_humidity;BME280_pressure;Samples;Min_cycle;Max_cycle;Signal;HPM_P1;HPM_P2
2022/04/03 00:00:10;;;;;;;6.47;3.45;;;;;;;-2.20;78.55;102320.03;5111951;28;20038;-74
2022/04/03 00:02:35;;;;;;;7.82;3.78;;;;;;;-2.21;78.11;102325.09;5112449;28;20399;-74
2022/04/03 00:05:01;;;;;;;6.43;3.45;;;;;;;-2.22;79.46;102325.91;5111558;28;20024;-74
2022/04/03 00:07:26;;;;;;;6.80;3.53;;;;;;;-2.27;79.66;102319.66;5111379;28;20042;-74
2022/04/03 00:09:51;;;;;;;6.90;3.63;;;;;;;-2.28;80.17;102323.91;5092900;28;20033;-75
2022/04/03 00:12:16;;;;;;;7.07;3.88;;;;;;;-2.27;80.41;102330.75;5091161;28;20020;-74
2022/04/03 00:14:42;;;;;;;5.57;3.67;;;;;;;-2.31;79.89;102321.19;5091927;28;20111;-75
2022/04/03 00:17:07;;;;;;;5.97;3.85;;;;;;;-2.34;80.16;102321.00;5091925;28;20020;-74
2022/04/03 00:19:32;;;;;;;7.07;3.63;;;;;;;-2.40;80.33;102325.78;5108770;28;20071;-74
2022/04/03 00:22:01;;;;;;;6.28;3.72;;;;;;;-2.46;79.95;102322.91;5112293;28;20024;-75
2022/04/03 00:24:26;;;;;;;8.40;3.90;;;;;;;-2.46;81.04;102322.91;5111993;28;20023;-74
2022/04/03 00:26:51;;;;;;;7.90;3.90;;;;;;;-2.52;80.39;102322.59;5092716;28;20031;-74
2022/04/03 00:29:17;;;;;;;5.18;3.50;;;;;;;-2.54;81.00;102321.66;5090376;28;20391;-74
2022/04/03 00:31:42;;;;;;;7.47;3.90;;;;;;;-2.60;80.61;102317.06;5090479;28;20081;-75
2022/04/03 00:34:07;;;;;;;6.85;4.03;;;;;;;-2.60;80.99;102325.63;5100147;28;20023;-74
2022/04/03 00:36:32;;;;;;;6.72;3.90;;;;;;;-2.59;80.97;102326.47;5097343;28;20430;-74
2022/04/03 00:38:58;;;;;;;7.13;3.70;;;;;;;-2.59;80.36;102321.38;5091608;28;20027;-74
2022/04/03 00:41:23;;;;;;;8.02;3.83;;;;;;;-2.56;80.44;102321.53;5090603;28;20031;-74
2022/04/03 00:43:48;;;;;;;9.63;3.88;;;;;;;-2.61;80.24;102318.75;5091509;28;20024;-74
2022/04/03 00:46:17;;;;;;;8.00;3.97;;;;;;;-2.70;80.74;102318.25;5100513;28;20019;-75
2022/04/03 00:48:44;;;;;;;8.18;3.53;;;;;;;-2.68;81.61;102315.78;5110599;28;20142;-74
2022/04/03 00:51:11;;;;;;;7.65;3.63;;;;;;;-2.68;81.73;102323.44;5111791;28;20072;-74
2022/04/03 00:53:36;;;;;;;6.50;3.92;;;;;;;-2.74;81.11;102321.44;5103345;28;20028;-74
2022/04/03 00:56:01;;;;;;;4.88;3.58;;;;;;;-2.79;81.85;102325.41;5094729;28;20024;-75
2022/04/03 00:58:27;;;;;;;5.68;3.60;;;;;;;-2.81;81.66;102327.03;5095210;28;20036;-74
2022/04/03 01:00:52;;;;;;;7.45;3.83;;;;;;;-2.86;82.01;102321.66;5095339;28;20032;-75
2022/04/03 01:03:17;;;;;;;4.88;3.88;;;;;;;-2.91;82.22;102324.72;5094864;28;20418;-74
2022/04/03 01:05:42;;;;;;;6.43;3.70;;;;;;;-2.95;82.55;102322.81;5099165;28;20475;-74
2022/04/03 01:08:09;;;;;;;8.02;4.10;;;;;;;-2.93;82.37;102328.88;5115037;28;20030;-74
2022/04/03 01:10:34;;;;;;;9.68;4.35;;;;;;;-2.96;83.39;102334.69;5115775;28;20026;-74
2022/04/03 01:13:00;;;;;;;8.32;4.28;;;;;;;-3.00;83.25;102327.69;5115750;28;20024;-74
2022/04/03 01:15:25;;;;;;;9.02;4.40;;;;;;;-3.01;82.97;102315.69;5110808;28;20131;-74
2022/04/03 01:17:50;;;;;;;6.22;3.65;;;;;;;-3.01;82.89;102325.91;5095211;28;20031;-74
2022/04/03 01:20:17;;;;;;;7.70;4.03;;;;;;;-3.05;83.04;102323.97;5095277;28;20024;-74
2022/04/03 01:22:42;;;;;;;7.03;4.05;;;;;;;-3.08;83.10;102327.22;5111328;28;20024;-74
2022/04/03 01:25:10;;;;;;;8.45;4.03;;;;;;;-3.13;82.81;102321.00;5101876;28;20036;-74
2022/04/03 01:27:36;;;;;;;7.10;4.20;;;;;;;-3.08;83.68;102329.78;5115570;28;20015;-74
2022/04/03 01:30:01;;;;;;;7.85;4.15;;;;;;;-3.13;83.34;102318.47;5114614;28;20505;-74
2022/04/03 01:32:26;;;;;;;6.70;4.03;;;;;;;-3.15;83.48;102320.03;5115363;28;20028;-74
2022/04/03 01:34:52;;;;;;;7.50;4.22;;;;;;;-3.17;83.25;102320.72;5115369;28;20522;-74
2022/04/03 01:37:17;;;;;;;7.10;4.30;;;;;;;-3.27;84.69;102305.72;5097234;28;20035;-74
2022/04/03 01:39:42;;;;;;;7.38;3.85;;;;;;;-3.19;84.53;102323.22;5094679;28;20032;-74
2022/04/03 01:42:09;;;;;;;6.40;4.22;;;;;;;-3.16;84.58;102314.84;5096037;28;20028;-74
2022/04/03 01:44:34;;;;;;;8.20;4.55;;;;;;;-3.20;84.85;102316.38;5093788;28;20360;-74
2022/04/03 01:47:00;;;;;;;6.47;4.18;;;;;;;-3.21;84.28;102321.34;5110130;28;20034;-74
2022/04/03 01:49:25;;;;;;;6.25;3.72;;;;;;;-3.27;85.17;102313.34;5107036;28;20392;-74
2022/04/03 01:51:50;;;;;;;9.57;4.47;;;;;;;-3.30;85.14;102321.75;5092723;28;20103;-74
2022/04/03 01:54:16;;;;;;;8.65;4.50;;;;;;;-3.35;85.20;102312.94;5093121;28;20020;-74
2022/04/03 01:56:41;;;;;;;7.22;4.20;;;;;;;-3.37;85.62;102312.88;5094084;28;20032;-74
2022/04/03 01:59:06;;;;;;;7.70;3.88;;;;;;;-3.39;85.91;102313.56;5092598;28;20085;-74
2022/04/03 02:01:34;;;;;;;7.57;4.60;;;;;;;-3.41;85.22;102307.50;5093201;28;20044;-74
2022/04/03 02:04:00;;;;;;;7.32;4.28;;;;;;;-3.44;86.35;102318.38;5093309;28;20435;-74
2022/04/03 02:06:26;;;;;;;8.35;4.70;;;;;;;-3.47;86.03;102312.22;5092687;28;20024;-74
2022/04/03 02:08:52;;;;;;;7.70;4.43;;;;;;;-3.49;86.38;102316.38;5092933;28;20468;-74
2022/04/03 02:11:17;;;;;;;8.18;4.50;;;;;;;-3.54;86.45;102306.78;5095918;28;20031;-74
2022/04/03 02:13:42;;;;;;;8.93;4.53;;;;;;;-3.54;86.87;102301.69;5095107;28;20425;-73
2022/04/03 02:16:09;;;;;;;6.85;4.43;;;;;;;-3.56;86.30;102308.38;5093922;28;20429;-74
2022/04/03 02:18:35;;;;;;;8.10;4.60;;;;;;;-3.54;86.99;102306.78;5104993;28;20486;-74
2022/04/03 02:21:01;;;;;;;11.77;5.00;;;;;;;-3.53;86.23;102300.91;5113226;28;20024;-74
2022/04/03 02:23:29;;;;;;;7.47;4.47;;;;;;;-3.58;86.38;102299.75;5113167;28;20379;-74
2022/04/03 02:25:54;;;;;;;8.70;5.03;;;;;;;-3.58;87.22;102301.44;5110296;28;20378;-74
2022/04/03 02:28:20;;;;;;;7.45;4.60;;;;;;;-3.58;86.84;102302.31;5113131;28;20028;-73
2022/04/03 02:30:46;;;;;;;8.68;4.38;;;;;;;-3.61;86.85;102306.34;5113043;28;20032;-73
2022/04/03 02:33:11;;;;;;;8.30;4.65;;;;;;;-3.63;86.48;102306.28;5112377;28;20035;-73
2022/04/03 02:35:36;;;;;;;8.50;5.00;;;;;;;-3.75;86.95;102287.72;5108869;28;20035;-74
2022/04/03 02:38:02;;;;;;;8.43;5.00;;;;;;;-3.72;87.11;102300.66;5092760;28;20032;-74
2022/04/03 02:40:27;;;;;;;9.68;4.90;;;;;;;-3.77;87.85;102296.94;5091508;28;20024;-74
2022/04/03 02:42:52;;;;;;;9.65;5.00;;;;;;;-3.79;88.23;102299.41;5092917;28;20533;-74
2022/04/03 02:45:18;;;;;;;9.68;4.72;;;;;;;-3.76;87.82;102296.16;5108899;28;20032;-74
2022/04/03 02:47:52;;;;;;;10.02;4.60;;;;;;;-3.72;88.10;102305.75;5091766;28;20707;-74
2022/04/03 02:50:20;;;;;;;8.30;4.47;;;;;;;-3.77;88.30;102295.25;5057655;28;1010511;-74
2022/04/03 02:52:45;;;;;;;9.55;4.38;;;;;;;-3.78;88.08;102303.72;5093310;28;20107;-74
2022/04/03 02:55:11;;;;;;;8.88;4.80;;;;;;;-3.82;88.29;102304.31;5093610;28;20067;-74
2022/04/03 02:57:36;;;;;;;6.40;4.45;;;;;;;-3.82;88.56;102303.44;5093104;28;20070;-74
2022/04/03 03:00:03;;;;;;;9.77;5.20;;;;;;;-3.81;88.85;102315.41;5093639;28;20020;-74
2022/04/03 03:02:28;;;;;;;7.82;4.60;;;;;;;-3.83;88.57;102315.28;5092459;28;20115;-74
2022/04/03 03:04:54;;;;;;;10.07;4.95;;;;;;;-3.88;88.80;102310.75;5092872;28;20110;-74
2022/04/03 03:07:21;;;;;;;8.35;4.90;;;;;;;-3.89;88.99;102308.97;5112342;28;20020;-74
2022/04/03 03:09:46;;;;;;;9.68;5.30;;;;;;;-3.93;89.77;102317.22;5112646;28;20098;-74
2022/04/03 03:12:11;;;;;;;10.27;5.25;;;;;;;-3.97;89.21;102318.72;5110997;28;20055;-73
2022/04/03 03:14:36;;;;;;;10.05;4.55;;;;;;;-3.97;90.46;102310.19;5113270;28;20037;-74
2022/04/03 03:17:02;;;;;;;10.30;6.68;;;;;;;-3.96;89.90;102314.50;5094852;28;20016;-74
2022/04/03 03:19:27;;;;;;;11.52;5.38;;;;;;;-4.05;89.97;102305.53;5092452;28;20039;-74
2022/04/03 03:21:52;;;;;;;9.05;5.65;;;;;;;-3.97;90.03;102325.47;5091993;28;20028;-74
2022/04/03 03:24:18;;;;;;;9.20;5.00;;;;;;;-4.01;90.32;102314.22;5092681;28;20032;-74
2022/04/03 03:26:43;;;;;;;7.95;4.82;;;;;;;-4.04;90.09;102317.47;5093432;28;20038;-74
2022/04/03 03:29:08;;;;;;;10.57;5.10;;;;;;;-4.06;90.41;102319.03;5092417;28;20035;-74
2022/04/03 03:31:34;;;;;;;10.25;4.97;;;;;;;-4.09;90.40;102326.53;5098181;28;20379;-74
2022/04/03 03:33:59;;;;;;;7.63;5.15;;;;;;;-4.13;90.22;102316.91;5112924;28;20058;-74
2022/04/03 03:36:24;;;;;;;8.98;5.07;;;;;;;-4.11;90.74;102322.13;5101924;28;20028;-74
2022/04/03 03:38:50;;;;;;;7.30;5.03;;;;;;;-4.11;91.23;102317.03;5093622;28;20059;-74
2022/04/03 03:41:15;;;;;;;8.18;4.97;;;;;;;-4.14;90.80;102320.25;5092135;28;20020;-74
2022/04/03 03:43:41;;;;;;;8.93;5.22;;;;;;;-4.16;91.03;102321.81;5091671;28;20038;-74
2022/04/03 03:46:08;;;;;;;8.23;4.75;;;;;;;-4.15;91.63;102327.78;5099702;28;20077;-74
2022/04/03 03:48:34;;;;;;;9.27;5.18;;;;;;;-4.17;91.47;102329.38;5112448;28;20071;-74
2022/04/03 03:50:59;;;;;;;7.53;5.35;;;;;;;-4.19;91.32;102326.72;5111569;28;20120;-74
2022/04/03 03:53:24;;;;;;;9.98;5.78;;;;;;;-4.21;91.51;102327.44;5093233;28;20032;-74
2022/04/03 03:55:50;;;;;;;8.38;5.20;;;;;;;-4.25;91.59;102322.16;5095462;28;20038;-74
2022/04/03 03:58:15;;;;;;;10.88;5.50;;;;;;;-4.26;91.76;102322.06;5111776;28;20356;-74
2022/04/03 04:00:41;;;;;;;10.52;4.97;;;;;;;-4.34;92.09;102324.16;5112510;27;20027;-74
2022/04/03 04:03:07;;;;;;;9.35;6.43;;;;;;;-4.34;92.02;102334.34;5095565;28;20020;-74
2022/04/03 04:05:32;;;;;;;8.68;5.07;;;;;;;-4.35;93.06;102324.94;5091072;28;20097;-74
2022/04/03 04:07:57;;;;;;;9.30;5.22;;;;;;;-4.36;92.45;102327.38;5112368;28;20035;-74
2022/04/03 04:10:23;;;;;;;7.72;5.35;;;;;;;-4.36;92.43;102324.84;5112048;28;20158;-74
2022/04/03 04:12:48;;;;;;;9.93;5.20;;;;;;;-4.33;92.77;102327.56;5100029;28;20016;-74
2022/04/03 04:15:14;;;;;;;8.82;4.80;;;;;;;-4.35;92.77;102329.13;5091991;28;20443;-74
2022/04/03 04:17:42;;;;;;;7.60;5.38;;;;;;;-4.37;92.73;102333.28;5109089;28;20487;-74
2022/04/03 04:20:11;;;;;;;9.20;5.10;;;;;;;-4.40;92.98;102340.72;5111751;28;20032;-74
2022/04/03 04:22:36;;;;;;;8.02;5.22;;;;;;;-4.44;92.83;102331.16;5111730;28;20034;-74
2022/04/03 04:25:02;;;;;;;9.52;5.57;;;;;;;-4.47;92.83;102329.28;5111914;28;20443;-74
2022/04/03 04:27:27;;;;;;;9.10;5.53;;;;;;;-4.50;93.23;102332.53;5095638;28;20027;-74
2022/04/03 04:29:52;;;;;;;12.23;5.47;;;;;;;-4.52;93.69;102328.09;5091441;28;20118;-74
2022/04/03 04:32:21;;;;;;;9.20;5.57;;;;;;;-4.48;93.86;102343.69;5092580;28;20051;-73
2022/04/03 04:34:50;;;;;;;9.88;5.28;;;;;;;-4.50;93.59;102346.91;5091573;28;20028;-74
2022/04/03 04:37:16;;;;;;;10.48;5.72;;;;;;;-4.56;93.82;102339.78;5092453;28;20017;-74
2022/04/03 04:39:42;;;;;;;9.98;5.75;;;;;;;-4.63;93.62;102337.63;5090565;28;20078;-74
2022/04/03 04:42:07;;;;;;;10.20;5.53;;;;;;;-4.63;93.50;102342.72;5108332;28;20380;-74
2022/04/03 04:44:32;;;;;;;9.82;5.60;;;;;;;-4.66;93.61;102342.53;5111743;28;20050;-74
2022/04/03 04:46:58;;;;;;;15.35;5.57;;;;;;;-4.68;93.78;102339.00;5100430;28;20024;-74
2022/04/03 04:49:23;;;;;;;10.50;5.88;;;;;;;-4.72;94.42;102342.16;5091080;28;20056;-74
2022/04/03 04:51:48;;;;;;;11.55;5.97;;;;;;;-4.71;95.03;102347.34;5091882;28;20032;-74
2022/04/03 04:54:14;;;;;;;9.07;5.88;;;;;;;-4.74;94.36;102344.63;5110089;28;20046;-74
2022/04/03 04:56:39;;;;;;;8.98;5.88;;;;;;;-4.71;94.43;102346.44;5104679;28;20039;-74
2022/04/03 04:59:04;;;;;;;8.27;5.35;;;;;;;-4.69;94.35;102354.19;5091699;28;20024;-74
2022/04/03 05:01:30;;;;;;;11.90;5.70;;;;;;;-4.72;93.62;102352.31;5106218;28;20040;-74
2022/04/03 05:03:55;;;;;;;10.25;5.57;;;;;;;-4.73;94.08;102353.13;5094554;28;20032;-74
2022/04/03 05:06:23;;;;;;;11.07;6.40;;;;;;;-4.74;94.48;102364.97;5092194;28;20358;-74
2022/04/03 05:08:49;;;;;;;10.20;5.78;;;;;;;-4.73;94.02;102365.84;5090472;28;20536;-74
2022/04/03 05:11:15;;;;;;;10.20;6.18;;;;;;;-4.74;93.88;102370.06;5091475;28;20024;-74
2022/04/03 05:13:42;;;;;;;10.45;5.72;;;;;;;-4.75;93.89;102369.94;5104302;28;20076;-74
2022/04/03 05:16:07;;;;;;;12.77;6.88;;;;;;;-4.76;93.65;102368.19;5110019;28;20039;-74
2022/04/03 05:18:34;;;;;;;10.60;5.82;;;;;;;-4.77;93.36;102374.09;5091059;28;20036;-74
2022/04/03 05:21:00;;;;;;;12.38;5.63;;;;;;;-4.79;93.38;102365.47;5091208;28;20020;-74
2022/04/03 05:23:25;;;;;;;9.63;5.95;;;;;;;-4.77;94.52;102363.91;5090102;28;20039;-74
2022/04/03 05:25:50;;;;;;;10.00;5.68;;;;;;;-4.73;94.44;102376.03;5091001;28;20382;-74
2022/04/03 05:28:15;;;;;;;9.75;5.80;;;;;;;-4.66;94.09;102378.16;5092286;28;20028;-74
2022/04/03 05:30:41;;;;;;;12.13;6.05;;;;;;;-4.63;94.67;102368.19;5090345;28;20162;-74
2022/04/03 05:33:06;;;;;;;11.60;6.53;;;;;;;-4.53;94.54;102373.06;5096844;28;20020;-74
2022/04/03 05:35:31;;;;;;;10.88;6.43;;;;;;;-4.47;94.79;102370.91;5110540;28;20438;-74
2022/04/03 05:37:57;;;;;;;12.68;6.68;;;;;;;-4.41;95.24;102378.03;5109000;28;20486;-74
2022/04/03 05:40:22;;;;;;;11.23;6.43;;;;;;;-4.36;94.74;102379.19;5095964;28;20039;-74
2022/04/03 05:42:48;;;;;;;8.93;5.80;;;;;;;-4.29;94.74;102380.44;5096845;28;20027;-73
2022/04/03 05:45:13;;;;;;;14.48;6.43;;;;;;;-4.23;93.91;102383.38;5115133;28;20038;-74
2022/04/03 05:47:39;;;;;;;10.50;6.13;;;;;;;-4.13;94.35;102382.25;5114919;28;20042;-73
2022/04/03 05:50:05;;;;;;;12.70;6.22;;;;;;;-4.04;94.42;102387.91;5102593;28;20072;-74
2022/04/03 05:52:45;;;;;;;11.10;6.50;;;;;;;-3.90;93.68;102378.56;5094224;28;20035;-74
2022/04/03 05:55:11;;;;;;;12.75;6.13;;;;;;;-3.82;93.48;102385.00;5094341;27;20031;-74
2022/04/03 05:57:37;;;;;;;12.68;6.35;;;;;;;-3.78;94.22;102382.72;5093860;28;20024;-74
2022/04/03 06:00:04;;;;;;;9.40;5.78;;;;;;;-3.68;93.67;102385.81;5105211;28;20039;-74
2022/04/03 06:02:29;;;;;;;9.32;5.93;;;;;;;-3.63;94.30;102390.41;5094099;28;20038;-74
2022/04/03 06:04:58;;;;;;;13.77;5.72;;;;;;;-3.59;93.55;102386.34;5112597;28;20024;-74
2022/04/03 06:07:24;;;;;;;10.18;6.13;;;;;;;-3.55;93.53;102389.16;5114397;28;20092;-73
2022/04/03 06:09:49;;;;;;;13.73;6.40;;;;;;;-3.49;93.30;102385.22;5107200;28;20437;-74
2022/04/03 06:12:14;;;;;;;12.00;6.05;;;;;;;-3.42;93.61;102393.31;5093428;28;20028;-74
2022/04/03 06:14:40;;;;;;;8.35;6.43;;;;;;;-3.31;93.54;102396.47;5107589;28;20387;-74
2022/04/03 06:17:05;;;;;;;10.02;6.53;;;;;;;-3.21;93.43;102403.00;5114781;28;20020;-73
2022/04/03 06:19:30;;;;;;;13.65;5.78;;;;;;;-3.14;93.36;102400.00;5103733;28;20070;-74
2022/04/03 06:21:55;;;;;;;11.55;6.22;;;;;;;-3.08;93.10;102405.44;5094167;28;20123;-74
2022/04/03 06:24:21;;;;;;;9.88;6.80;;;;;;;-3.04;93.29;102393.75;5094750;28;20028;-74
2022/04/03 06:26:46;;;;;;;16.15;7.00;;;;;;;-2.95;92.69;102399.38;5094345;28;20081;-74
2022/04/03 06:29:12;;;;;;;9.88;6.30;;;;;;;-2.89;92.55;102404.81;5093781;28;20563;-74
2022/04/03 06:31:37;;;;;;;10.52;6.80;;;;;;;-2.83;92.94;102407.72;5094702;28;20032;-74
2022/04/03 06:34:02;;;;;;;16.02;6.45;;;;;;;-2.75;92.45;102395.38;5097896;28;20364;-74
2022/04/03 06:36:27;;;;;;;15.80;7.32;;;;;;;-2.73;91.95;102387.00;5114180;28;20565;-74
2022/04/03 06:38:53;;;;;;;9.68;7.00;;;;;;;-2.67;91.76;102389.91;5113364;28;20390;-74
2022/04/03 06:41:18;;;;;;;12.27;6.95;;;;;;;-2.67;91.99;102392.47;5106634;28;20024;-74
2022/04/03 06:43:44;;;;;;;11.10;6.43;;;;;;;-2.71;91.66;102390.53;5095493;28;20066;-74
2022/04/03 06:46:09;;;;;;;11.88;6.95;;;;;;;-2.71;92.03;102400.75;5092858;28;20024;-74
2022/04/03 06:48:35;;;;;;;12.43;6.57;;;;;;;-2.71;91.54;102389.66;5093288;28;20044;-74
2022/04/03 06:51:01;;;;;;;9.82;6.32;;;;;;;-2.73;91.63;102388.69;5093359;28;20032;-74
2022/04/03 06:53:27;;;;;;;10.60;6.88;;;;;;;-2.67;91.99;102383.94;5092260;28;20539;-74
2022/04/03 06:55:52;;;;;;;13.07;6.65;;;;;;;-2.62;91.97;102385.03;5093475;28;20123;-74
2022/04/03 06:58:17;;;;;;;10.73;7.32;;;;;;;-2.56;92.10;102384.50;5093324;28;20028;-74
2022/04/03 07:00:42;;;;;;;11.77;7.63;;;;;;;-2.50;92.73;102397.63;5110904;28;20032;-74
2022/04/03 07:03:08;;;;;;;10.95;7.40;;;;;;;-2.46;92.53;102384.22;5109286;28;20035;-74
2022/04/03 07:05:33;;;;;;;13.23;8.07;;;;;;;-2.37;92.38;102390.69;5092859;28;20102;-74
2022/04/03 07:07:59;;;;;;;12.82;7.88;;;;;;;-2.31;92.93;102389.28;5092447;28;20070;-74
2022/04/03 07:10:24;;;;;;;12.57;7.53;;;;;;;-2.25;93.11;102394.72;5092820;28;20544;-74
2022/04/03 07:12:50;;;;;;;12.65;9.40;;;;;;;-2.24;92.21;102393.91;5094041;28;20039;-74
2022/04/03 07:15:15;;;;;;;16.20;9.10;;;;;;;-2.19;92.84;102392.47;5092183;28;20024;-74
2022/04/03 07:17:41;;;;;;;13.13;9.15;;;;;;;-2.15;93.18;102394.41;5092760;28;20032;-74
2022/04/03 07:20:08;;;;;;;14.52;9.93;;;;;;;-2.05;93.83;102393.22;5092943;28;20499;-74
2022/04/03 07:22:33;;;;;;;12.70;9.25;;;;;;;-1.93;92.89;102393.84;5091780;28;20043;-74
2022/04/03 07:24:59;;;;;;;16.95;10.73;;;;;;;-1.74;93.92;102395.69;5093881;28;20036;-74
2022/04/03 07:27:24;;;;;;;14.65;10.63;;;;;;;-1.55;93.67;102395.81;5100004;28;20016;-74
2022/04/03 07:29:49;;;;;;;15.18;9.70;;;;;;;-1.36;93.50;102397.63;5112323;28;20028;-74
2022/04/03 07:32:14;;;;;;;16.15;10.30;;;;;;;-1.08;93.12;102399.88;5112871;28;20015;-74
2022/04/03 07:34:40;;;;;;;13.25;9.30;;;;;;;-0.89;93.09;102385.41;5095793;28;20040;-74
2022/04/03 07:37:05;;;;;;;17.25;9.68;;;;;;;-0.65;92.55;102393.38;5091944;28;20060;-74
2022/04/03 07:39:30;;;;;;;13.75;9.90;;;;;;;-0.41;91.96;102399.63;5092256;28;20084;-74
2022/04/03 07:41:56;;;;;;;12.90;9.20;;;;;;;-0.25;91.28;102396.97;5092524;28;20060;-74
2022/04/03 07:44:21;;;;;;;14.05;8.93;;;;;;;-0.14;91.23;102397.44;5103391;27;20019;-74
2022/04/03 07:46:47;;;;;;;13.07;8.80;;;;;;;0.00;90.25;102387.84;5122234;27;20030;-75
2022/04/03 07:49:12;;;;;;;12.07;8.65;;;;;;;0.18;89.88;102398.88;5111744;28;20410;-75
2022/04/03 07:51:37;;;;;;;12.48;8.02;;;;;;;0.37;88.54;102400.56;5112549;28;20039;-74
2022/04/03 07:54:03;;;;;;;13.90;8.63;;;;;;;0.58;90.21;102392.03;5113117;28;20055;-75
2022/04/03 07:56:30;;;;;;;13.43;7.93;;;;;;;0.74;87.52;102390.97;5111854;27;20088;-74
2022/04/03 07:58:55;;;;;;;13.20;8.00;;;;;;;0.87;85.22;102396.66;5110249;28;20034;-75
2022/04/03 08:01:20;;;;;;;11.45;6.60;;;;;;;0.96;84.50;102392.75;5112335;28;20024;-75
2022/04/03 08:03:46;;;;;;;9.82;5.60;;;;;;;1.02;83.62;102393.88;5111220;28;20067;-74
2022/04/03 08:06:11;;;;;;;7.68;5.13;;;;;;;1.10;81.55;102397.59;5103878;27;20028;-74
2022/04/03 08:08:37;;;;;;;6.40;4.82;;;;;;;1.22;81.15;102391.22;5096292;28;20028;-74
2022/04/03 08:11:02;;;;;;;8.30;4.55;;;;;;;1.38;82.33;102391.00;5114595;27;20026;-75
2022/04/03 08:13:28;;;;;;;10.38;5.25;;;;;;;1.52;80.29;102387.25;5126919;27;20024;-74
2022/04/03 08:15:54;;;;;;;7.25;3.83;;;;;;;1.64;78.01;102397.16;5111887;28;20502;-76
2022/04/03 08:18:22;;;;;;;4.70;3.40;;;;;;;1.70;77.05;102388.75;5109613;28;20062;-73
2022/04/03 08:20:47;;;;;;;4.75;2.78;;;;;;;1.80;75.06;102381.47;5112693;27;20042;-74
2022/04/03 08:23:12;;;;;;;4.75;3.33;;;;;;;1.96;74.57;102398.34;5132590;27;20027;-75
2022/04/03 08:25:39;;;;;;;5.90;3.40;;;;;;;2.04;73.85;102399.50;5131894;27;20479;-74
2022/04/03 08:28:05;;;;;;;4.05;3.08;;;;;;;2.11;73.92;102401.47;5119056;27;20019;-74
2022/04/03 08:30:33;;;;;;;6.40;2.75;;;;;;;2.23;73.68;102411.31;5111815;28;20144;-74
2022/04/03 08:32:59;;;;;;;6.68;2.95;;;;;;;2.37;74.77;102395.50;5106419;28;20083;-75
2022/04/03 08:35:26;;;;;;;6.00;2.80;;;;;;;2.44;72.48;102410.31;5113846;27;20012;-75
2022/04/03 08:37:53;;;;;;;5.22;3.03;;;;;;;2.49;71.44;102403.66;5121879;27;20488;-75
2022/04/03 08:40:21;;;;;;;6.40;2.20;;;;;;;2.53;71.50;102408.94;5108300;28;20106;-75
2022/04/03 08:42:46;;;;;;;7.43;3.03;;;;;;;2.58;71.05;102403.94;5114897;27;20032;-75
2022/04/03 08:45:12;;;;;;;5.82;2.45;;;;;;;2.61;69.61;102403.19;5111988;28;20381;-75
2022/04/03 08:47:47;;;;;;;4.13;2.53;;;;;;;2.77;71.15;102410.59;5118552;28;20034;-75
2022/04/03 08:50:13;;;;;;;3.58;2.10;;;;;;;2.85;69.25;102400.56;5111172;28;20036;-75
2022/04/03 08:52:43;;;;;;;6.22;2.40;;;;;;;2.95;69.21;102408.66;5114577;28;20423;-75
2022/04/03 08:55:08;;;;;;;2.90;2.13;;;;;;;3.03;67.69;102398.56;5112102;28;20483;-74
2022/04/03 08:57:34;;;;;;;5.63;2.45;;;;;;;3.06;67.38;102398.69;5111255;28;20027;-75
2022/04/03 09:00:00;;;;;;;4.40;2.63;;;;;;;3.14;66.08;102401.50;5112370;28;20382;-75
2022/04/03 09:02:25;;;;;;;8.68;2.95;;;;;;;3.29;67.67;102401.97;5121012;27;20024;-75
2022/04/03 09:04:51;;;;;;;4.80;2.50;;;;;;;3.31;67.02;102390.03;5105101;28;20028;-75
2022/04/03 09:07:20;;;;;;;6.03;2.50;;;;;;;3.43;66.62;102397.25;5107683;27;20035;-75
2022/04/03 09:09:56;;;;;;;4.10;2.63;;;;;;;3.56;66.57;102403.66;5130519;27;20031;-75
2022/04/03 09:12:21;;;;;;;3.72;2.55;;;;;;;3.70;68.07;102394.66;5122359;28;20044;-74
2022/04/03 09:14:50;;;;;;;2.55;2.17;;;;;;;3.81;65.22;102395.81;5115221;27;20043;-74
2022/04/03 09:17:33;;;;;;;5.85;2.63;;;;;;;3.94;65.93;102384.16;5097681;27;20081;-74
2022/04/03 09:20:00;;;;;;;4.65;2.50;;;;;;;4.24;65.28;102389.28;5095215;28;20032;-74
2022/04/03 09:22:29;;;;;;;5.30;2.03;;;;;;;4.53;63.86;102389.19;5094210;28;20038;-74
2022/04/03 09:24:55;;;;;;;4.18;2.40;;;;;;;4.96;63.12;102390.28;5095116;28;20031;-74
2022/04/03 09:27:22;;;;;;;2.78;2.20;;;;;;;5.23;61.08;102372.84;5094872;28;20085;-74
2022/04/03 09:30:00;;;;;;;3.13;2.30;;;;;;;5.39;61.84;102372.34;5094238;28;20032;-74
2022/04/03 09:32:26;;;;;;;5.35;2.47;;;;;;;5.24;59.47;102371.13;5094974;28;20024;-74
2022/04/03 09:34:55;;;;;;;4.40;2.00;;;;;;;4.98;59.60;102375.69;5094190;28;20033;-74
2022/04/03 09:37:22;;;;;;;3.70;2.20;;;;;;;4.98;60.50;102370.53;5094631;28;20115;-74
2022/04/03 09:39:47;;;;;;;7.10;2.30;;;;;;;5.16;60.30;102369.22;5094893;28;20046;-74
2022/04/03 09:42:15;;;;;;;3.28;2.45;;;;;;;5.40;57.69;102371.50;5094144;28;20027;-74
2022/04/03 09:44:43;;;;;;;2.90;2.20;;;;;;;5.79;58.88;102365.44;5094752;28;20430;-74
2022/04/03 09:47:24;;;;;;;5.28;2.45;;;;;;;6.17;59.24;102362.75;5095018;28;20024;-74
2022/04/03 09:49:58;;;;;;;3.83;2.00;;;;;;;6.46;56.61;102362.44;5093707;28;20044;-74
2022/04/03 09:52:35;;;;;;;5.05;2.30;;;;;;;6.51;56.88;102363.41;5094666;28;20387;-74
2022/04/03 09:55:06;;;;;;;5.00;1.45;;;;;;;6.31;54.72;102369.09;5094691;28;20031;-74
2022/04/03 09:57:32;;;;;;;3.13;1.40;;;;;;;6.06;55.00;102364.28;5093682;28;20036;-74
2022/04/03 09:59:58;;;;;;;3.05;1.45;;;;;;;6.05;53.57;102359.97;5094527;28;20392;-74
2022/04/03 10:02:24;;;;;;;4.22;1.52;;;;;;;6.15;54.63;102359.28;5094237;28;20024;-74
2022/04/03 10:04:51;;;;;;;3.20;1.33;;;;;;;6.36;52.80;102337.22;5093670;28;20053;-74
2022/04/03 10:07:17;;;;;;;4.97;1.67;;;;;;;6.70;55.05;102344.72;5094434;28;20039;-74
2022/04/03 10:09:47;;;;;;;2.42;1.50;;;;;;;7.03;53.16;102339.19;5093787;28;20027;-74
2022/04/03 10:12:17;;;;;;;2.78;1.33;;;;;;;7.35;51.17;102330.09;5094362;28;20036;-74
2022/04/03 10:14:44;;;;;;;3.53;1.40;;;;;;;7.66;50.56;102331.41;5094110;28;20024;-74
2022/04/03 10:17:10;;;;;;;1.52;1.17;;;;;;;7.60;48.13;102324.41;5093361;28;20028;-74
2022/04/03 10:19:35;;;;;;;3.00;1.40;;;;;;;7.35;50.47;102322.31;5094386;28;20479;-74
2022/04/03 10:22:01;;;;;;;2.70;1.45;;;;;;;7.26;48.24;102329.16;5094007;28;20035;-74
2022/04/03 10:24:29;;;;;;;2.55;1.30;;;;;;;7.18;47.26;102320.38;5093189;28;20032;-74
2022/04/03 10:27:04;;;;;;;3.65;1.58;;;;;;;7.07;48.98;102319.34;5093725;28;20435;-74
2022/04/03 10:29:36;;;;;;;3.97;1.27;;;;;;;6.93;48.53;102326.94;5093671;28;20532;-74
2022/04/03 10:32:04;;;;;;;1.95;1.25;;;;;;;6.67;47.63;102329.13;5093099;28;20463;-74
2022/04/03 10:34:32;;;;;;;3.78;1.38;;;;;;;6.52;49.58;102334.91;5093835;28;20024;-74
2022/04/03 10:36:57;;;;;;;2.65;1.48;;;;;;;6.61;49.62;102323.84;5093787;28;20035;-74
2022/04/03 10:39:25;;;;;;;1.85;1.40;;;;;;;6.82;49.68;102319.84;5092981;28;20031;-74
2022/04/03 10:42:20;;;;;;;3.78;1.73;;;;;;;7.47;50.60;102315.56;5093704;28;20032;-74
2022/04/03 10:45:11;;;;;;;3.75;1.30;;;;;;;8.50;49.42;102319.34;5093509;28;20107;-74
2022/04/03 10:47:43;;;;;;;2.53;1.20;;;;;;;8.97;44.08;102310.16;5093575;28;20107;-74
2022/04/03 10:50:10;;;;;;;1.73;1.08;;;;;;;8.75;42.25;102316.91;5093561;28;20506;-74
2022/04/03 10:52:35;;;;;;;4.00;1.00;;;;;;;8.44;42.63;102303.69;5092720;28;20028;-74
2022/04/03 10:55:02;;;;;;;5.13;1.30;;;;;;;8.29;44.83;102313.91;5093630;28;20031;-74
2022/04/03 10:57:48;;;;;;;4.28;1.60;;;;;;;8.37;47.01;102305.31;5093160;28;20281;-74
2022/04/03 11:00:14;;;;;;;3.22;1.60;;;;;;;8.42;45.58;102302.78;5092675;28;20041;-74
2022/04/03 11:02:40;;;;;;;2.10;1.50;;;;;;;8.36;46.20;102300.09;5093074;28;20034;-74
2022/04/03 11:05:26;;;;;;;2.85;1.70;;;;;;;8.18;47.20;102300.81;5093433;28;20027;-74
2022/04/03 11:07:54;;;;;;;3.70;1.40;;;;;;;7.97;46.34;102298.84;5092508;28;20040;-74
2022/04/03 11:11:01;;;;;;;2.22;1.45;;;;;;;7.71;47.90;102299.41;5093163;28;20020;-74
2022/04/03 11:13:29;;;;;;;2.58;1.73;;;;;;;7.76;46.38;102307.28;5083433;28;20118;-74
2022/04/03 11:16:01;;;;;;;2.28;1.77;;;;;;;8.10;48.56;102295.50;5093074;28;20114;-74
2022/04/03 11:18:35;;;;;;;6.95;2.00;;;;;;;8.53;47.69;102295.94;5092857;28;20072;-74
2022/04/03 11:21:28;;;;;;;6.88;1.95;;;;;;;8.90;47.28;102288.44;5092163;28;20072;-74